sensor_id;sensor_type;location;lat;lon;timestamp;pressure;altitude;pressure_sealevel;temperature;humidity
20043;BME280;10182;52.896;6.496;2023-04-05T00:00:45;102476.66;;;0.50;100.00
20043;BME280;10182;52.896;6.496;2023-04-05T00:05:47;102475.03;;;0.55;100.00
20043;BME280;10182;52.896;6.496;2023-04-05T00:10:49;102471.38;;;0.47;100.00
20043;BME280;10182;52.896;6.496;2023-04-05T00:15:52;102458.03;;;0.33;100.00
20043;BME280;10182;52.896;6.496;2023-04-05T00:20:57;102448.97;;;0.17;100.00
20043;BME280;10182;52.896;6.496;2023-04-05T00:25:58;102442.66;;;0.07;100.00
20043;BME280;10182;52.896;6.496;2023-04-05T00:31:02;102452.28;;;0.10;100.00
20043;BME280;10182;52.896;6.496;2023-04-05T00:36:08;102451.31;;;0.06;100.00
20043;BME280;10182;52.896;6.496;2023-04-05T00:41:11;102444.88;;;-0.08;100.00
20043;BME280;10182;52.896;6.496;2023-04-05T00:46:14;102449.19;;;-0.10;100.00
20043;BME280;10182;52.896;6.496;2023-04-05T00:51:17;102444.53;;;-0.22;100.00
20043;BME280;10182;52.896;6.496;2023-04-05T00:56:19;102441.81;;;-0.27;100.00
20043;BME280;10182;52.896;6.496;2023-04-05T01:01:24;102432.91;;;-0.37;100.00
20043;BME280;10182;52.896;6.496;2023-04-05T01:06:53;102423.31;;;-0.38;100.00
20043;BME280;10182;52.896;6.496;2023-04-05T01:12:01;102425.75;;;-0.44;100.00
20043;BME280;10182;52.896;6.496;2023-04-05T01:17:06;102430.84;;;-0.48;100.00
20043;BME280;10182;52.896;6.496;2023-04-05T01:22:40;102425.72;;;-0.45;100.00
20043;BME280;10182;52.896;6.496;2023-04-05T01:27:59;102427.84;;;-0.64;100.00
20043;BME280;10182;52.896;6.496;2023-04-05T01:33:11;102421.72;;;-0.66;100.00
20043;BME280;10182;52.896;6.496;2023-04-05T01:38:17;102416.44;;;-0.69;100.00
20043;BME280;10182;52.896;6.496;2023-04-05T01:43:20;102421.69;;;-0.68;100.00
20043;BME280;10182;52.896;6.496;2023-04-05T01:48:23;102420.03;;;-0.64;100.00
20043;BME280;10182;52.896;6.496;2023-04-05T01:53:25;102406.22;;;-0.61;100.00
20043;BME280;10182;52.896;6.496;2023-04-05T01:58:27;102404.41;;;-0.65;100.00
20043;BME280;10182;52.896;6.496;2023-04-05T02:03:30;102401.91;;;-0.61;100.00
20043;BME280;10182;52.896;6.496;2023-04-05T02:08:32;102395.09;;;-0.56;100.00
20043;BME280;10182;52.896;6.496;2023-04-05T02:13:33;102384.50;;;-0.62;100.00
20043;BME280;10182;52.896;6.496;2023-04-05T02:18:37;102394.59;;;-0.74;100.00
20043;BME280;10182;52.896;6.496;2023-04-05T02:23:38;102392.56;;;-0.86;100.00
20043;BME280;10182;52.896;6.496;2023-04-05T02:28:40;102384.38;;;-1.00;100.00
20043;BME280;10182;52.896;6.496;2023-04-05T02:33:43;102387.97;;;-0.95;100.00
20043;BME280;10182;52.896;6.496;2023-04-05T02:38:45;102375.72;;;-0.99;100.00
20043;BME280;10182;52.896;6.496;2023-04-05T02:43:47;102381.72;;;-1.02;100.00
20043;BME280;10182;52.896;6.496;2023-04-05T02:48:50;102384.72;;;-1.20;100.00
20043;BME280;10182;52.896;6.496;2023-04-05T02:53:52;102376.69;;;-1.27;100.00
20043;BME280;10182;52.896;6.496;2023-04-05T02:58:53;102381.78;;;-1.30;100.00
20043;BME280;10182;52.896;6.496;2023-04-05T03:03:56;102375.56;;;-1.36;100.00
20043;BME280;10182;52.896;6.496;2023-04-05T03:08:58;102378.09;;;-1.39;100.00
20043;BME280;10182;52.896;6.496;2023-04-05T03:14:01;102370.94;;;-1.47;100.00
20043;BME280;10182;52.896;6.496;2023-04-05T03:19:04;102358.88;;;-1.44;100.00
20043;BME280;10182;52.896;6.496;2023-04-05T03:24:06;102367.63;;;-1.42;100.00
20043;BME280;10182;52.896;6.496;2023-04-05T03:29:08;102366.78;;;-1.41;100.00
20043;BME280;10182;52.896;6.496;2023-04-05T03:34:11;102371.16;;;-1.38;100.00
20043;BME280;10182;52.896;6.496;2023-04-05T03:39:13;102375.72;;;-1.31;100.00
20043;BME280;10182;52.896;6.496;2023-04-05T03:44:15;102361.59;;;-1.41;100.00
20043;BME280;10182;52.896;6.496;2023-04-05T03:49:18;102350.47;;;-1.35;100.00
20043;BME280;10182;52.896;6.496;2023-04-05T03:54:20;102350.59;;;-1.30;100.00
20043;BME280;10182;52.896;6.496;2023-04-05T03:59:22;102343.63;;;-1.31;100.00
20043;BME280;10182;52.896;6.496;2023-04-05T04:04:25;102343.63;;;-1.31;100.00
20043;BME280;10182;52.896;6.496;2023-04-05T04:09:27;102345.09;;;-1.41;100.00
20043;BME280;10182;52.896;6.496;2023-04-05T04:14:30;102331.97;;;-1.46;100.00
20043;BME280;10182;52.896;6.496;2023-04-05T04:19:33;102330.88;;;-1.54;100.00
20043;BME280;10182;52.896;6.496;2023-04-05T04:24:35;102331.91;;;-1.49;100.00
20043;BME280;10182;52.896;6.496;2023-04-05T04:29:36;102327.66;;;-1.45;100.00
20043;BME280;10182;52.896;6.496;2023-04-05T04:34:47;102327.25;;;-1.59;100.00
20043;BME280;10182;52.896;6.496;2023-04-05T04:39:49;102323.56;;;-1.67;100.00
20043;BME280;10182;52.896;6.496;2023-04-05T04:44:51;102321.00;;;-1.66;100.00
20043;BME280;10182;52.896;6.496;2023-04-05T04:49:56;102332.38;;;-1.62;100.00
20043;BME280;10182;52.896;6.496;2023-04-05T04:54:58;102330.53;;;-1.66;100.00
20043;BME280;10182;52.896;6.496;2023-04-05T05:00:02;102334.69;;;-1.72;100.00
20043;BME280;10182;52.896;6.496;2023-04-05T05:05:12;102332.88;;;-1.74;100.00
20043;BME280;10182;52.896;6.496;2023-04-05T05:10:14;102336.34;;;-1.74;100.00
20043;BME280;10182;52.896;6.496;2023-04-05T05:15:16;102337.28;;;-1.72;100.00
20043;BME280;10182;52.896;6.496;2023-04-05T05:20:19;102327.88;;;-1.68;100.00
20043;BME280;10182;52.896;6.496;2023-04-05T05:25:21;102335.00;;;-1.61;100.00
20043;BME280;10182;52.896;6.496;2023-04-05T05:30:23;102337.94;;;-1.50;100.00
20043;BME280;10182;52.896;6.496;2023-04-05T05:35:26;102336.06;;;-1.54;100.00
20043;BME280;10182;52.896;6.496;2023-04-05T05:40:28;102334.56;;;-1.46;100.00
20043;BME280;10182;52.896;6.496;2023-04-05T05:45:29;102331.16;;;-1.45;100.00
20043;BME280;10182;52.896;6.496;2023-04-05T05:50:33;102324.28;;;-1.41;100.00
20043;BME280;10182;52.896;6.496;2023-04-05T05:55:35;102330.09;;;-1.20;100.00
20043;BME280;10182;52.896;6.496;2023-04-05T06:00:37;102326.31;;;-0.99;100.00
20043;BME280;10182;52.896;6.496;2023-04-05T06:05:40;102319.72;;;-0.86;100.00
20043;BME280;10182;52.896;6.496;2023-04-05T06:10:43;102319.38;;;-0.65;100.00
20043;BME280;10182;52.896;6.496;2023-04-05T06:15:46;102316.97;;;-0.57;100.00
20043;BME280;10182;52.896;6.496;2023-04-05T06:20:49;102324.38;;;-0.38;100.00
20043;BME280;10182;52.896;6.496;2023-04-05T06:25:51;102326.72;;;-0.10;100.00
20043;BME280;10182;52.896;6.496;2023-04-05T06:30:53;102325.44;;;0.10;100.00
20043;BME280;10182;52.896;6.496;2023-04-05T06:35:56;102331.47;;;0.49;100.00
20043;BME280;10182;52.896;6.496;2023-04-05T06:40:58;102321.44;;;0.69;100.00
20043;BME280;10182;52.896;6.496;2023-04-05T06:45:59;102319.47;;;1.03;100.00
20043;BME280;10182;52.896;6.496;2023-04-05T06:51:03;102317.44;;;1.37;100.00
20043;BME280;10182;52.896;6.496;2023-04-05T06:56:06;102317.84;;;1.62;100.00
20043;BME280;10182;52.896;6.496;2023-04-05T07:01:08;102318.06;;;1.77;100.00
20043;BME280;10182;52.896;6.496;2023-04-05T07:06:12;102318.28;;;1.93;100.00
20043;BME280;10182;52.896;6.496;2023-04-05T07:11:13;102321.19;;;2.13;100.00
20043;BME280;10182;52.896;6.496;2023-04-05T07:16:15;102320.28;;;2.11;100.00
20043;BME280;10182;52.896;6.496;2023-04-05T07:21:23;102311.72;;;2.23;100.00
20043;BME280;10182;52.896;6.496;2023-04-05T07:26:26;102316.31;;;2.41;100.00
20043;BME280;10182;52.896;6.496;2023-04-05T07:31:28;102320.53;;;2.31;100.00
20043;BME280;10182;52.896;6.496;2023-04-05T07:36:32;102311.44;;;2.73;100.00
20043;BME280;10182;52.896;6.496;2023-04-05T07:41:33;102320.19;;;2.74;100.00
20043;BME280;10182;52.896;6.496;2023-04-05T07:46:36;102309.91;;;2.92;100.00
20043;BME280;10182;52.896;6.496;2023-04-05T07:51:39;102305.84;;;3.25;100.00
20043;BME280;10182;52.896;6.496;2023-04-05T07:56:42;102304.16;;;3.33;100.00
20043;BME280;10182;52.896;6.496;2023-04-05T08:01:44;102302.69;;;3.68;100.00
20043;BME280;10182;52.896;6.496;2023-04-05T08:06:47;102296.63;;;3.78;100.00
20043;BME280;10182;52.896;6.496;2023-04-05T08:11:49;102297.63;;;3.99;100.00
20043;BME280;10182;52.896;6.496;2023-04-05T08:16:51;102300.41;;;4.31;100.00
20043;BME280;10182;52.896;6.496;2023-04-05T08:21:54;102299.59;;;4.45;100.00
20043;BME280;10182;52.896;6.496;2023-04-05T08:26:55;102295.28;;;4.62;100.00
20043;BME280;10182;52.896;6.496;2023-04-05T08:31:57;102290.09;;;4.98;100.00
20043;BME280;10182;52.896;6.496;2023-04-05T08:37:00;102282.25;;;5.25;100.00
20043;BME280;10182;52.896;6.496;2023-04-05T08:42:03;102278.72;;;5.43;100.00
20043;BME280;10182;52.896;6.496;2023-04-05T08:47:07;102283.09;;;5.55;100.00
20043;BME280;10182;52.896;6.496;2023-04-05T08:52:15;102279.56;;;5.64;100.00
20043;BME280;10182;52.896;6.496;2023-04-05T08:57:17;102271.63;;;5.93;100.00
20043;BME280;10182;52.896;6.496;2023-04-05T09:02:23;102272.41;;;6.26;100.00
20043;BME280;10182;52.896;6.496;2023-04-05T09:07:28;102271.56;;;6.14;100.00
20043;BME280;10182;52.896;6.496;2023-04-05T09:12:31;102267.97;;;6.36;100.00
20043;BME280;10182;52.896;6.496;2023-04-05T09:17:33;102273.25;;;6.29;100.00
20043;BME280;10182;52.896;6.496;2023-04-05T09:22:44;102264.31;;;6.65;100.00
20043;BME280;10182;52.896;6.496;2023-04-05T09:27:53;102266.06;;;6.68;100.00
20043;BME280;10182;52.896;6.496;2023-04-05T09:32:56;102258.88;;;6.94;100.00
20043;BME280;10182;52.896;6.496;2023-04-05T09:38:00;102257.91;;;7.03;100.00
20043;BME280;10182;52.896;6.496;2023-04-05T09:43:02;102258.78;;;7.04;100.00
20043;BME280;10182;52.896;6.496;2023-04-05T09:48:04;102255.94;;;7.30;100.00
20043;BME280;10182;52.896;6.496;2023-04-05T09:53:08;102255.03;;;7.33;90.19
20043;BME280;10182;52.896;6.496;2023-04-05T09:58:11;102256.56;;;7.55;97.25
20043;BME280;10182;52.896;6.496;2023-04-05T10:03:13;102257.34;;;7.65;79.74
20043;BME280;10182;52.896;6.496;2023-04-05T10:08:16;102257.50;;;7.51;84.09
20043;BME280;10182;52.896;6.496;2023-04-05T10:13:18;102248.53;;;7.68;85.41
20043;BME280;10182;52.896;6.496;2023-04-05T10:18:23;102249.19;;;7.87;90.94
20043;BME280;10182;52.896;6.496;2023-04-05T10:23:30;102245.63;;;7.91;82.65
20043;BME280;10182;52.896;6.496;2023-04-05T10:28:36;102240.56;;;7.71;88.63
20043;BME280;10182;52.896;6.496;2023-04-05T10:33:39;102237.66;;;7.97;83.55
20043;BME280;10182;52.896;6.496;2023-04-05T10:38:59;102234.75;;;8.17;80.94
20043;BME280;10182;52.896;6.496;2023-04-05T10:44:04;102232.03;;;8.25;71.15
20043;BME280;10182;52.896;6.496;2023-04-05T10:49:15;102211.72;;;8.30;78.55
20043;BME280;10182;52.896;6.496;2023-04-05T10:54:22;102215.31;;;8.23;66.73
20043;BME280;10182;52.896;6.496;2023-04-05T10:59:25;102217.41;;;7.97;65.30
20043;BME280;10182;52.896;6.496;2023-04-05T11:04:28;102207.34;;;8.29;78.46
20043;BME280;10182;52.896;6.496;2023-04-05T11:09:31;102203.53;;;8.50;75.07
20043;BME280;10182;52.896;6.496;2023-04-05T11:14:35;102200.03;;;8.50;66.30
20043;BME280;10182;52.896;6.496;2023-04-05T11:19:48;102197.47;;;8.45;60.60
20043;BME280;10182;52.896;6.496;2023-04-05T11:24:54;102189.91;;;8.78;73.59
20043;BME280;10182;52.896;6.496;2023-04-05T11:29:58;102178.31;;;8.87;64.25
20043;BME280;10182;52.896;6.496;2023-04-05T11:35:04;102178.41;;;8.82;62.58
20043;BME280;10182;52.896;6.496;2023-04-05T11:40:30;102165.56;;;8.59;54.99
20043;BME280;10182;52.896;6.496;2023-04-05T11:45:33;102164.28;;;8.85;60.65
20043;BME280;10182;52.896;6.496;2023-04-05T11:50:36;102163.59;;;8.72;56.82
20043;BME280;10182;52.896;6.496;2023-04-05T11:55:41;102158.72;;;8.44;54.83
20043;BME280;10182;52.896;6.496;2023-04-05T12:00:44;102152.16;;;8.71;58.56
20043;BME280;10182;52.896;6.496;2023-04-05T12:05:47;102141.31;;;8.87;57.40
20043;BME280;10182;52.896;6.496;2023-04-05T12:10:54;102145.34;;;9.09;57.74
20043;BME280;10182;52.896;6.496;2023-04-05T12:15:57;102135.25;;;9.30;56.88
20043;BME280;10182;52.896;6.496;2023-04-05T12:21:00;102133.38;;;8.87;50.64
20043;BME280;10182;52.896;6.496;2023-04-05T12:26:05;102138.47;;;8.99;51.62
20043;BME280;10182;52.896;6.496;2023-04-05T12:31:09;102132.53;;;8.86;55.41
20043;BME280;10182;52.896;6.496;2023-04-05T12:36:12;102130.38;;;7.96;100.00
20043;BME280;10182;52.896;6.496;2023-04-05T12:41:16;102113.13;;;7.69;100.00
20043;BME280;10182;52.896;6.496;2023-04-05T12:46:18;102119.41;;;7.58;100.00
20043;BME280;10182;52.896;6.496;2023-04-05T12:51:19;102116.97;;;7.41;78.01
20043;BME280;10182;52.896;6.496;2023-04-05T12:56:22;102106.84;;;7.81;78.29
20043;BME280;10182;52.896;6.496;2023-04-05T13:01:24;102090.50;;;8.16;70.96
20043;BME280;10182;52.896;6.496;2023-04-05T13:06:26;102094.31;;;8.56;84.81
20043;BME280;10182;52.896;6.496;2023-04-05T13:11:29;102079.97;;;8.69;72.32
20043;BME280;10182;52.896;6.496;2023-04-05T13:16:32;102071.75;;;8.86;71.04
20043;BME280;10182;52.896;6.496;2023-04-05T13:21:34;102072.84;;;9.21;83.74
20043;BME280;10182;52.896;6.496;2023-04-05T13:26:37;102071.66;;;9.36;66.46
20043;BME280;10182;52.896;6.496;2023-04-05T13:31:39;102056.56;;;9.41;76.66
20043;BME280;10182;52.896;6.496;2023-04-05T13:36:41;102060.78;;;9.52;82.61
20043;BME280;10182;52.896;6.496;2023-04-05T13:41:44;102061.41;;;9.63;73.18
20043;BME280;10182;52.896;6.496;2023-04-05T13:46:45;102048.53;;;9.47;59.08
20043;BME280;10182;52.896;6.496;2023-04-05T13:51:47;102040.94;;;9.30;55.52
20043;BME280;10182;52.896;6.496;2023-04-05T13:56:50;102033.25;;;9.18;53.88
20043;BME280;10182;52.896;6.496;2023-04-05T14:01:52;102022.06;;;9.47;66.25
20043;BME280;10182;52.896;6.496;2023-04-05T14:06:54;102011.75;;;9.74;73.21
20043;BME280;10182;52.896;6.496;2023-04-05T14:11:58;102013.34;;;9.83;75.23
20043;BME280;10182;52.896;6.496;2023-04-05T14:17:00;102007.41;;;9.73;62.30
20043;BME280;10182;52.896;6.496;2023-04-05T14:22:02;102005.63;;;9.74;59.88
20043;BME280;10182;52.896;6.496;2023-04-05T14:27:05;101995.84;;;9.77;65.61
20043;BME280;10182;52.896;6.496;2023-04-05T14:32:07;101993.56;;;9.60;54.17
20043;BME280;10182;52.896;6.496;2023-04-05T14:37:09;101984.84;;;9.57;55.87
20043;BME280;10182;52.896;6.496;2023-04-05T14:42:12;101977.78;;;9.57;57.68
20043;BME280;10182;52.896;6.496;2023-04-05T14:47:14;101978.84;;;9.48;54.84
20043;BME280;10182;52.896;6.496;2023-04-05T14:52:16;101973.34;;;9.58;59.96
20043;BME280;10182;52.896;6.496;2023-04-05T14:57:19;101973.06;;;9.70;57.20
20043;BME280;10182;52.896;6.496;2023-04-05T15:02:21;101973.53;;;9.50;52.26
20043;BME280;10182;52.896;6.496;2023-04-05T15:07:23;101973.53;;;9.50;59.66
20043;BME280;10182;52.896;6.496;2023-04-05T15:12:26;101964.16;;;9.35;53.45
20043;BME280;10182;52.896;6.496;2023-04-05T15:17:30;101964.25;;;9.30;53.39
20043;BME280;10182;52.896;6.496;2023-04-05T15:22:32;101966.94;;;9.29;53.15
20043;BME280;10182;52.896;6.496;2023-04-05T15:27:36;101964.22;;;9.32;55.20
20043;BME280;10182;52.896;6.496;2023-04-05T15:32:38;101953.63;;;9.34;57.09
20043;BME280;10182;52.896;6.496;2023-04-05T15:37:40;101948.41;;;9.29;53.66
20043;BME280;10182;52.896;6.496;2023-04-05T15:42:43;101947.38;;;9.36;54.88
20043;BME280;10182;52.896;6.496;2023-04-05T15:47:45;101939.56;;;9.31;57.15
20043;BME280;10182;52.896;6.496;2023-04-05T15:52:47;101934.56;;;9.18;52.42
20043;BME280;10182;52.896;6.496;2023-04-05T15:57:50;101932.94;;;9.12;57.02
20043;BME280;10182;52.896;6.496;2023-04-05T16:02:53;101931.00;;;9.20;57.63
20043;BME280;10182;52.896;6.496;2023-04-05T16:07:58;101929.47;;;9.08;54.41
20043;BME280;10182;52.896;6.496;2023-04-05T16:13:01;101929.63;;;9.01;51.46
20043;BME280;10182;52.896;6.496;2023-04-05T16:18:03;101922.75;;;8.93;53.63
20043;BME280;10182;52.896;6.496;2023-04-05T16:23:06;101925.13;;;9.06;57.58
20043;BME280;10182;52.896;6.496;2023-04-05T16:28:09;101920.63;;;9.11;57.45
20043;BME280;10182;52.896;6.496;2023-04-05T16:33:11;101921.88;;;8.93;51.27
20043;BME280;10182;52.896;6.496;2023-04-05T16:38:12;101913.88;;;8.96;54.68
20043;BME280;10182;52.896;6.496;2023-04-05T16:43:16;101912.31;;;8.86;51.45
20043;BME280;10182;52.896;6.496;2023-04-05T16:48:17;101906.03;;;8.93;57.21
20043;BME280;10182;52.896;6.496;2023-04-05T16:53:19;101902.53;;;8.91;55.14
20043;BME280;10182;52.896;6.496;2023-04-05T16:58:22;101903.59;;;8.84;57.30
20043;BME280;10182;52.896;6.496;2023-04-05T17:03:24;101900.22;;;8.75;56.72
20043;BME280;10182;52.896;6.496;2023-04-05T17:08:26;101896.97;;;8.61;55.57
20043;BME280;10182;52.896;6.496;2023-04-05T17:13:30;101901.34;;;8.63;58.90
20043;BME280;10182;52.896;6.496;2023-04-05T17:18:32;101893.63;;;8.53;59.11
20043;BME280;10182;52.896;6.496;2023-04-05T17:23:34;101887.66;;;8.41;59.30
20043;BME280;10182;52.896;6.496;2023-04-05T17:28:37;101895.75;;;8.32;59.70
20043;BME280;10182;52.896;6.496;2023-04-05T17:33:39;101888.88;;;8.23;62.97
20043;BME280;10182;52.896;6.496;2023-04-05T17:38:40;101897.81;;;8.14;64.10
20043;BME280;10182;52.896;6.496;2023-04-05T17:43:44;101894.50;;;8.05;69.47
20043;BME280;10182;52.896;6.496;2023-04-05T17:48:46;101891.13;;;7.96;74.94
20043;BME280;10182;52.896;6.496;2023-04-05T17:53:48;101886.19;;;7.76;74.39
20043;BME280;10182;52.896;6.496;2023-04-05T17:58:52;101882.13;;;7.55;76.32
20043;BME280;10182;52.896;6.496;2023-04-05T18:03:54;101885.03;;;7.38;77.73
20043;BME280;10182;52.896;6.496;2023-04-05T18:08:56;101889.59;;;7.25;83.39
20043;BME280;10182;52.896;6.496;2023-04-05T18:13:59;101886.34;;;7.06;83.62
20043;BME280;10182;52.896;6.496;2023-04-05T18:19:01;101885.72;;;6.89;88.54
20043;BME280;10182;52.896;6.496;2023-04-05T18:24:03;101895.63;;;6.70;96.13
20043;BME280;10182;52.896;6.496;2023-04-05T18:29:07;101897.59;;;6.51;100.00
20043;BME280;10182;52.896;6.496;2023-04-05T18:34:08;101890.72;;;6.37;100.00
20043;BME280;10182;52.896;6.496;2023-04-05T18:39:10;101894.38;;;6.24;100.00
20043;BME280;10182;52.896;6.496;2023-04-05T18:44:14;101905.88;;;6.14;100.00
20043;BME280;10182;52.896;6.496;2023-04-05T18:49:16;101904.22;;;6.03;100.00
20043;BME280;10182;52.896;6.496;2023-04-05T18:54:18;101912.16;;;5.94;100.00
20043;BME280;10182;52.896;6.496;2023-04-05T18:59:21;101913.13;;;5.81;100.00
20043;BME280;10182;52.896;6.496;2023-04-05T19:04:23;101913.22;;;5.68;100.00
20043;BME280;10182;52.896;6.496;2023-04-05T19:09:25;101922.13;;;5.50;100.00
20043;BME280;10182;52.896;6.496;2023-04-05T19:14:28;101915.31;;;5.20;100.00
20043;BME280;10182;52.896;6.496;2023-04-05T19:19:30;101918.84;;;5.17;100.00
20043;BME280;10182;52.896;6.496;2023-04-05T19:24:32;101912.75;;;5.09;100.00
20043;BME280;10182;52.896;6.496;2023-04-05T19:29:35;101915.44;;;4.98;100.00
20043;BME280;10182;52.896;6.496;2023-04-05T19:34:37;101917.22;;;4.82;100.00
20043;BME280;10182;52.896;6.496;2023-04-05T19:39:39;101919.06;;;4.68;100.00
20043;BME280;10182;52.896;6.496;2023-04-05T19:44:48;101918.22;;;4.50;100.00
20043;BME280;10182;52.896;6.496;2023-04-05T19:49:51;101912.13;;;4.36;100.00
20043;BME280;10182;52.896;6.496;2023-04-05T19:54:55;101918.28;;;4.26;100.00
20043;BME280;10182;52.896;6.496;2023-04-05T19:59:58;101909.53;;;4.13;100.00
20043;BME280;10182;52.896;6.496;2023-04-05T20:05:00;101907.81;;;4.01;100.00
20043;BME280;10182;52.896;6.496;2023-04-05T20:10:13;101912.19;;;3.89;100.00
20043;BME280;10182;52.896;6.496;2023-04-05T20:15:34;101899.94;;;3.85;100.00
20043;BME280;10182;52.896;6.496;2023-04-05T20:20:36;101892.97;;;3.81;100.00
20043;BME280;10182;52.896;6.496;2023-04-05T20:25:41;101898.22;;;3.75;100.00
20043;BME280;10182;52.896;6.496;2023-04-05T20:30:44;101899.97;;;3.88;100.00
20043;BME280;10182;52.896;6.496;2023-04-05T20:35:46;101893.84;;;3.71;100.00
20043;BME280;10182;52.896;6.496;2023-04-05T20:40:48;101891.22;;;3.71;100.00
20043;BME280;10182;52.896;6.496;2023-04-05T20:45:51;101889.47;;;3.82;100.00
20043;BME280;10182;52.896;6.496;2023-04-05T20:50:54;101876.34;;;3.95;100.00
20043;BME280;10182;52.896;6.496;2023-04-05T20:55:56;101879.00;;;3.99;100.00
20043;BME280;10182;52.896;6.496;2023-04-05T21:01:00;101879.00;;;3.98;100.00
20043;BME280;10182;52.896;6.496;2023-04-05T21:06:03;101869.38;;;3.89;100.00
20043;BME280;10182;52.896;6.496;2023-04-05T21:11:07;101861.50;;;3.90;100.00
20043;BME280;10182;52.896;6.496;2023-04-05T21:16:12;101869.38;;;3.90;100.00
20043;BME280;10182;52.896;6.496;2023-04-05T21:21:14;101863.25;;;3.90;100.00
20043;BME280;10182;52.896;6.496;2023-04-05T21:26:15;101854.50;;;3.97;100.00
20043;BME280;10182;52.896;6.496;2023-04-05T21:31:19;101862.38;;;3.99;100.00
20043;BME280;10182;52.896;6.496;2023-04-05T21:36:20;101857.09;;;4.10;100.00
20043;BME280;10182;52.896;6.496;2023-04-05T21:41:22;101851.88;;;4.05;100.00
20043;BME280;10182;52.896;6.496;2023-04-05T21:46:25;101853.59;;;4.04;100.00
20043;BME280;10182;52.896;6.496;2023-04-05T21:51:27;101854.53;;;3.94;100.00
20043;BME280;10182;52.896;6.496;2023-04-05T21:56:29;101855.38;;;3.92;100.00
20043;BME280;10182;52.896;6.496;2023-04-05T22:01:32;101851.03;;;3.80;100.00
20043;BME280;10182;52.896;6.496;2023-04-05T22:06:34;101849.28;;;3.82;100.00
20043;BME280;10182;52.896;6.496;2023-04-05T22:11:35;101852.81;;;3.65;100.00
20043;BME280;10182;52.896;6.496;2023-04-05T22:16:38;101849.31;;;3.57;100.00
20043;BME280;10182;52.896;6.496;2023-04-05T22:21:40;101841.44;;;3.51;100.00
20043;BME280;10182;52.896;6.496;2023-04-05T22:26:42;101835.31;;;3.46;100.00
20043;BME280;10182;52.896;6.496;2023-04-05T22:31:45;101830.97;;;3.43;100.00
20043;BME280;10182;52.896;6.496;2023-04-05T22:36:47;101826.59;;;3.30;100.00
20043;BME280;10182;52.896;6.496;2023-04-05T22:41:49;101823.06;;;3.17;100.00
20043;BME280;10182;52.896;6.496;2023-04-05T22:46:52;101820.47;;;3.09;100.00
20043;BME280;10182;52.896;6.496;2023-04-05T22:51:54;101820.44;;;3.04;100.00
20043;BME280;10182;52.896;6.496;2023-04-05T22:56:55;101813.47;;;3.03;100.00
20043;BME280;10182;52.896;6.496;2023-04-05T23:01:59;101805.59;;;2.97;100.00
20043;BME280;10182;52.896;6.496;2023-04-05T23:07:00;101805.59;;;2.93;100.00
20043;BME280;10182;52.896;6.496;2023-04-05T23:12:02;101804.69;;;2.83;100.00
20043;BME280;10182;52.896;6.496;2023-04-05T23:17:06;101800.31;;;2.76;100.00
20043;BME280;10182;52.896;6.496;2023-04-05T23:22:08;101794.22;;;2.75;100.00
20043;BME280;10182;52.896;6.496;2023-04-05T23:27:10;101790.69;;;2.68;100.00
20043;BME280;10182;52.896;6.496;2023-04-05T23:32:13;101783.72;;;2.61;100.00
20043;BME280;10182;52.896;6.496;2023-04-05T23:37:15;101781.97;;;2.57;100.00
20043;BME280;10182;52.896;6.496;2023-04-05T23:42:17;101780.19;;;2.53;100.00
20043;BME280;10182;52.896;6.496;2023-04-05T23:47:20;101778.44;;;2.55;100.00
20043;BME280;10182;52.896;6.496;2023-04-05T23:52:22;101767.09;;;2.50;100.00
20043;BME280;10182;52.896;6.496;2023-04-05T23:57:24;101769.69;;;2.51;100.00
